Airfield :
LOGIN :

Register | Disclaimer

   EN    FR    IT 

 










Legend :    VFR   Marginal VFR   IFR   Intensive IFR   Very Intensive IFR
Visi :
Ceiling :
>= 8 km
>= 3000ft
5 to 8 km
1000 to 3000 ft
1500m to 5 km
500 to 1000 ft
800 to 1500m
200 to 500 ft
< 800m
< 200 ft
Symbols :   Thunderstorms  Fog  Heavy snow  Heavy precipitations  Wind > 20 kt
SIGMETs :     Misc.  Thunderstorms  Icing  Turbulence  Mountain Waves  Volcanic Ashes






- Airport Elevation : 242 ft
- IATA code : DUB


EIDW - Dublin

CURRENT METAR :
  • 260500Z 12006KT 090V160 9999 FEW008 SCT014 BKN040 10/09 Q1008 NOSIG

EXPIRED METARs :
  • 260430Z 13006KT 090V170 9999 -RA FEW006 SCT010 BKN023 10/10 Q1008 TEMPO BKN012
  • 260400Z 14007KT 100V180 9999 -RA FEW006 SCT009 BKN018 11/10 Q1008 TEMPO BKN012
  • 260330Z 13007KT 100V170 9999 -RA FEW007 SCT009 BKN018 11/10 Q1008 TEMPO BKN012
  • 260300Z 14008KT 090V170 9999 -RA FEW008 SCT011 BKN030 11/09 Q1008 TEMPO BKN012
  • 260230Z 14007KT 100V170 9999 -RA FEW008 SCT011 BKN028 10/09 Q1009 TEMPO BKN012
  • 260200Z 13007KT 080V160 9999 -RA FEW008 SCT014 BKN042 10/09 Q1009 TEMPO BKN012
  • 260130Z 14007KT 9999 -RA FEW008 SCT011 BKN022 11/09 Q1009 TEMPO BKN012
  • 260100Z 14008KT 100V160 9999 -RA FEW008 SCT010 BKN012 11/09 Q1010 NOSIG
  • 260030Z 13006KT 080V170 9999 -RA FEW008 SCT011 BKN015 11/10 Q1010 TEMPO BKN012

TAF TAF EIDW
Valid from the 26 at 00:00 until the 27 at 00:00 UTC


252300Z 2600/2624 14012KT 9999 -RA SCT012 BKN030
TEMPO 2600/2610 4000 BKN012
BECMG 2601/2603 11010KT
PROB30
TEMPO 2607/2610 3000 -RADZ BKN005
BECMG 2608/2610 VRB03KT
BECMG 2610/2612 25010KT SCT015
TEMPO 2610/2619 -SHRA FEW018CB
PROB40
TEMPO 2614/2619 4000 SHRA SCT018CB
PROB30
TEMPO 2614/2618 3000 TSRA BKN012



MET'MAP, your aeronautical weather chart ! - Copyright ORBIFLY December 2007 - Disclaimer

ORBIFLY MET'MAP TEAM :

Programming & Development : Alexandra Zaïnal
Original concept : Baudouin d'Aumeries
Technical & hardware support : Manuel Goepfert
Assistance : Marc-Olivier Méhu




SOURCES & CREDITS :

   NOAA